sensor_id;sensor_type;location;lat;lon;timestamp;pressure;altitude;pressure_sealevel;temperature;humidity
25350;BME280;13302;48.796;11.978;2023-02-13T00:00:53;98801.66;;;4.24;38.31
25350;BME280;13302;48.796;11.978;2023-02-13T00:03:40;98799.75;;;4.25;38.42
25350;BME280;13302;48.796;11.978;2023-02-13T00:06:27;98794.84;;;4.27;38.52
25350;BME280;13302;48.796;11.978;2023-02-13T00:09:15;98784.19;;;4.30;38.66
25350;BME280;13302;48.796;11.978;2023-02-13T00:12:02;98785.84;;;4.31;38.66
25350;BME280;13302;48.796;11.978;2023-02-13T00:14:49;98778.44;;;4.32;38.61
25350;BME280;13302;48.796;11.978;2023-02-13T00:17:36;98786.66;;;4.32;38.44
25350;BME280;13302;48.796;11.978;2023-02-13T00:20:23;98780.59;;;4.30;38.34
25350;BME280;13302;48.796;11.978;2023-02-13T00:23:10;98777.06;;;4.29;38.44
25350;BME280;13302;48.796;11.978;2023-02-13T00:25:58;98775.41;;;4.28;38.49
25350;BME280;13302;48.796;11.978;2023-02-13T00:28:45;98781.72;;;4.29;38.56
25350;BME280;13302;48.796;11.978;2023-02-13T00:31:32;98777.31;;;4.28;38.65
25350;BME280;13302;48.796;11.978;2023-02-13T00:34:19;98788.28;;;4.28;38.72
25350;BME280;13302;48.796;11.978;2023-02-13T00:37:06;98784.72;;;4.27;38.71
25350;BME280;13302;48.796;11.978;2023-02-13T00:39:53;98788.53;;;4.26;38.84
25350;BME280;13302;48.796;11.978;2023-02-13T00:42:40;98792.63;;;4.24;38.76
25350;BME280;13302;48.796;11.978;2023-02-13T00:45:27;98795.91;;;4.21;38.71
25350;BME280;13302;48.796;11.978;2023-02-13T00:48:14;98796.69;;;4.16;38.73
25350;BME280;13302;48.796;11.978;2023-02-13T00:51:03;98804.31;;;4.14;38.88
25350;BME280;13302;48.796;11.978;2023-02-13T00:53:50;98799.13;;;4.12;38.97
25350;BME280;13302;48.796;11.978;2023-02-13T00:56:37;98797.47;;;4.11;39.09
25350;BME280;13302;48.796;11.978;2023-02-13T00:59:24;98802.09;;;4.11;38.96
25350;BME280;13302;48.796;11.978;2023-02-13T01:02:12;98805.09;;;4.09;38.96
25350;BME280;13302;48.796;11.978;2023-02-13T01:04:59;98809.19;;;4.07;39.03
25350;BME280;13302;48.796;11.978;2023-02-13T01:07:46;98804.50;;;4.02;38.92
25350;BME280;13302;48.796;11.978;2023-02-13T01:10:33;98808.59;;;4.00;39.07
25350;BME280;13302;48.796;11.978;2023-02-13T01:13:20;98808.31;;;4.01;39.08
25350;BME280;13302;48.796;11.978;2023-02-13T01:16:07;98808.66;;;4.05;39.12
25350;BME280;13302;48.796;11.978;2023-02-13T01:18:54;98803.72;;;4.07;39.19
25350;BME280;13302;48.796;11.978;2023-02-13T01:21:42;98796.09;;;4.09;39.11
25350;BME280;13302;48.796;11.978;2023-02-13T01:24:30;98796.63;;;4.11;39.19
25350;BME280;13302;48.796;11.978;2023-02-13T01:27:19;98794.19;;;4.14;38.97
25350;BME280;13302;48.796;11.978;2023-02-13T01:30:07;98790.94;;;4.18;38.93
25350;BME280;13302;48.796;11.978;2023-02-13T01:32:57;98786.56;;;4.22;38.86
25350;BME280;13302;48.796;11.978;2023-02-13T01:35:44;98790.72;;;4.24;38.91
25350;BME280;13302;48.796;11.978;2023-02-13T01:38:31;98789.34;;;4.27;38.84
25350;BME280;13302;48.796;11.978;2023-02-13T01:41:18;98787.75;;;4.31;39.00
25350;BME280;13302;48.796;11.978;2023-02-13T01:44:44;98790.22;;;4.32;39.01
25350;BME280;13302;48.796;11.978;2023-02-13T01:51:07;98787.78;;;4.36;38.84
25350;BME280;13302;48.796;11.978;2023-02-13T01:54:00;98785.34;;;4.39;38.68
25350;BME280;13302;48.796;11.978;2023-02-13T01:56:52;98787.53;;;4.42;38.70
25350;BME280;13302;48.796;11.978;2023-02-13T01:59:49;98784.25;;;4.40;38.52
25350;BME280;13302;48.796;11.978;2023-02-13T02:02:43;98787.53;;;4.42;38.79
25350;BME280;13302;48.796;11.978;2023-02-13T02:05:32;98775.25;;;4.45;38.44
25350;BME280;13302;48.796;11.978;2023-02-13T02:08:21;98772.50;;;4.45;38.54
25350;BME280;13302;48.796;11.978;2023-02-13T02:11:21;98770.31;;;4.42;38.68
25350;BME280;13302;48.796;11.978;2023-02-13T02:14:11;98776.88;;;4.41;38.71
25350;BME280;13302;48.796;11.978;2023-02-13T02:17:01;98778.78;;;4.40;38.60
25350;BME280;13302;48.796;11.978;2023-02-13T02:33:16;98759.53;;;4.25;38.56
25350;BME280;13302;48.796;11.978;2023-02-13T02:36:33;98762.50;;;4.24;38.69
25350;BME280;13302;48.796;11.978;2023-02-13T02:39:38;98758.94;;;4.23;38.32
25350;BME280;13302;48.796;11.978;2023-02-13T02:46:26;98753.13;;;4.14;38.64
25350;BME280;13302;48.796;11.978;2023-02-13T02:49:17;98751.47;;;4.13;38.64
25350;BME280;13302;48.796;11.978;2023-02-13T02:52:38;98748.19;;;4.11;38.56
25350;BME280;13302;48.796;11.978;2023-02-13T02:56:21;98749.56;;;4.09;38.71
25350;BME280;13302;48.796;11.978;2023-02-13T02:59:04;98744.34;;;4.07;38.61
25350;BME280;13302;48.796;11.978;2023-02-13T03:02:14;98742.69;;;4.06;38.64
25350;BME280;13302;48.796;11.978;2023-02-13T03:05:26;98744.03;;;4.04;38.44
25350;BME280;13302;48.796;11.978;2023-02-13T03:08:32;98748.69;;;4.03;38.59
25350;BME280;13302;48.796;11.978;2023-02-13T03:11:38;98759.63;;;4.03;38.37
25350;BME280;13302;48.796;11.978;2023-02-13T03:14:46;98750.31;;;3.99;38.45
25350;BME280;13302;48.796;11.978;2023-02-13T03:17:33;98752.47;;;3.97;38.43
25350;BME280;13302;48.796;11.978;2023-02-13T03:21:03;98756.81;;;3.93;38.48
25350;BME280;13302;48.796;11.978;2023-02-13T03:24:37;98757.09;;;3.92;38.21
25350;BME280;13302;48.796;11.978;2023-02-13T03:34:03;98754.56;;;3.85;38.20
25350;BME280;13302;48.796;11.978;2023-02-13T03:37:00;98758.41;;;3.84;38.02
25350;BME280;13302;48.796;11.978;2023-02-13T03:40:12;98761.91;;;3.80;37.97
25350;BME280;13302;48.796;11.978;2023-02-13T03:43:11;98760.25;;;3.79;38.02
25350;BME280;13302;48.796;11.978;2023-02-13T03:46:00;98761.03;;;3.74;38.00
25350;BME280;13302;48.796;11.978;2023-02-13T03:48:49;98760.75;;;3.71;37.90
25350;BME280;13302;48.796;11.978;2023-02-13T03:51:58;98757.94;;;3.65;38.06
25350;BME280;13302;48.796;11.978;2023-02-13T03:55:00;98754.91;;;3.62;38.03
25350;BME280;13302;48.796;11.978;2023-02-13T03:58:18;98754.31;;;3.55;38.21
25350;BME280;13302;48.796;11.978;2023-02-13T04:01:28;98764.13;;;3.51;38.17
25350;BME280;13302;48.796;11.978;2023-02-13T04:07:24;98776.34;;;3.43;38.18
25350;BME280;13302;48.796;11.978;2023-02-13T04:10:19;98778.25;;;3.43;38.20
25350;BME280;13302;48.796;11.978;2023-02-13T04:13:16;98773.84;;;3.42;38.34
25350;BME280;13302;48.796;11.978;2023-02-13T04:16:11;98765.91;;;3.40;38.44
25350;BME280;13302;48.796;11.978;2023-02-13T04:19:02;98770.53;;;3.40;38.43
25350;BME280;13302;48.796;11.978;2023-02-13T04:21:56;98776.00;;;3.40;38.50
25350;BME280;13302;48.796;11.978;2023-02-13T04:24:44;98771.38;;;3.40;38.59
25350;BME280;13302;48.796;11.978;2023-02-13T04:27:31;98767.81;;;3.40;38.56
25350;BME280;13302;48.796;11.978;2023-02-13T04:30:18;98760.72;;;3.39;38.56
25350;BME280;13302;48.796;11.978;2023-02-13T04:33:05;98761.78;;;3.38;38.34
25350;BME280;13302;48.796;11.978;2023-02-13T04:35:52;98768.34;;;3.37;38.37
25350;BME280;13302;48.796;11.978;2023-02-13T04:38:39;98763.94;;;3.36;38.47
25350;BME280;13302;48.796;11.978;2023-02-13T04:41:26;98763.44;;;3.39;38.51
25350;BME280;13302;48.796;11.978;2023-02-13T04:44:13;98766.19;;;3.39;38.57
25350;BME280;13302;48.796;11.978;2023-02-13T04:47:00;98769.75;;;3.39;38.57
25350;BME280;13302;48.796;11.978;2023-02-13T04:49:47;98762.34;;;3.40;38.62
25350;BME280;13302;48.796;11.978;2023-02-13T04:52:34;98759.38;;;3.41;38.77
25350;BME280;13302;48.796;11.978;2023-02-13T04:55:22;98767.03;;;3.44;38.71
25350;BME280;13302;48.796;11.978;2023-02-13T04:58:10;98770.34;;;3.46;38.55
25350;BME280;13302;48.796;11.978;2023-02-13T05:00:57;98769.00;;;3.49;38.63
25350;BME280;13302;48.796;11.978;2023-02-13T05:03:44;98767.09;;;3.49;38.64
25350;BME280;13302;48.796;11.978;2023-02-13T05:06:31;98763.28;;;3.50;38.42
25350;BME280;13302;48.796;11.978;2023-02-13T05:09:18;98773.41;;;3.50;38.36
25350;BME280;13302;48.796;11.978;2023-02-13T05:12:06;98773.66;;;3.48;38.49
25350;BME280;13302;48.796;11.978;2023-02-13T05:14:53;98779.94;;;3.49;38.47
25350;BME280;13302;48.796;11.978;2023-02-13T05:17:43;98772.00;;;3.47;38.45
25350;BME280;13302;48.796;11.978;2023-02-13T05:20:30;98772.81;;;3.48;38.57
25350;BME280;13302;48.796;11.978;2023-02-13T05:23:17;98776.66;;;3.47;38.70
25350;BME280;13302;48.796;11.978;2023-02-13T05:26:10;98778.25;;;3.43;38.67
25350;BME280;13302;48.796;11.978;2023-02-13T05:28:57;98777.97;;;3.44;38.70
25350;BME280;13302;48.796;11.978;2023-02-13T05:32:02;98777.72;;;3.46;38.63
25350;BME280;13302;48.796;11.978;2023-02-13T05:34:49;98778.28;;;3.48;38.61
25350;BME280;13302;48.796;11.978;2023-02-13T05:37:36;98782.13;;;3.47;38.46
25350;BME280;13302;48.796;11.978;2023-02-13T05:40:23;98773.91;;;3.47;38.56
25350;BME280;13302;48.796;11.978;2023-02-13T05:43:10;98772.00;;;3.47;38.48
25350;BME280;13302;48.796;11.978;2023-02-13T05:46:05;98773.91;;;3.47;38.45
25350;BME280;13302;48.796;11.978;2023-02-13T05:48:52;98784.28;;;3.45;38.50
25350;BME280;13302;48.796;11.978;2023-02-13T05:51:40;98784.28;;;3.45;38.53
25350;BME280;13302;48.796;11.978;2023-02-13T05:54:27;98781.81;;;3.43;38.52
25350;BME280;13302;48.796;11.978;2023-02-13T05:57:14;98781.00;;;3.43;38.57
25350;BME280;13302;48.796;11.978;2023-02-13T06:00:03;98782.06;;;3.42;38.50
25350;BME280;13302;48.796;11.978;2023-02-13T06:02:51;98782.06;;;3.42;38.79
25350;BME280;13302;48.796;11.978;2023-02-13T06:05:38;98790.25;;;3.42;38.85
25350;BME280;13302;48.796;11.978;2023-02-13T06:08:25;98794.91;;;3.41;38.65
25350;BME280;13302;48.796;11.978;2023-02-13T06:11:12;98794.34;;;3.39;38.71
25350;BME280;13302;48.796;11.978;2023-02-13T06:13:59;98804.47;;;3.39;38.86
25350;BME280;13302;48.796;11.978;2023-02-13T06:16:46;98804.69;;;3.37;38.82
25350;BME280;13302;48.796;11.978;2023-02-13T06:19:33;98807.19;;;3.39;38.83
25350;BME280;13302;48.796;11.978;2023-02-13T06:22:20;98811.84;;;3.38;38.89
25350;BME280;13302;48.796;11.978;2023-02-13T06:25:07;98822.19;;;3.36;38.89
25350;BME280;13302;48.796;11.978;2023-02-13T06:27:54;98818.06;;;3.34;38.89
25350;BME280;13302;48.796;11.978;2023-02-13T06:30:41;98830.06;;;3.33;39.05
25350;BME280;13302;48.796;11.978;2023-02-13T06:33:28;98828.41;;;3.32;39.27
25350;BME280;13302;48.796;11.978;2023-02-13T06:36:15;98831.16;;;3.32;39.14
25350;BME280;13302;48.796;11.978;2023-02-13T06:39:02;98829.25;;;3.32;39.39
25350;BME280;13302;48.796;11.978;2023-02-13T06:41:49;98838.03;;;3.34;39.15
25350;BME280;13302;48.796;11.978;2023-02-13T06:44:36;98839.69;;;3.35;39.30
25350;BME280;13302;48.796;11.978;2023-02-13T06:47:24;98840.25;;;3.37;39.11
25350;BME280;13302;48.796;11.978;2023-02-13T06:50:12;98852.56;;;3.40;39.16
25350;BME280;13302;48.796;11.978;2023-02-13T06:52:59;98852.06;;;3.43;39.13
25350;BME280;13302;48.796;11.978;2023-02-13T06:55:46;98855.34;;;3.45;39.10
25350;BME280;13302;48.796;11.978;2023-02-13T06:58:33;98860.59;;;3.46;39.08
25350;BME280;13302;48.796;11.978;2023-02-13T07:01:20;98862.50;;;3.46;39.10
25350;BME280;13302;48.796;11.978;2023-02-13T07:04:07;98864.16;;;3.47;39.05
25350;BME280;13302;48.796;11.978;2023-02-13T07:06:55;98870.44;;;3.47;39.10
25350;BME280;13302;48.796;11.978;2023-02-13T07:09:42;98859.22;;;3.49;39.07
25350;BME280;13302;48.796;11.978;2023-02-13T07:12:32;98862.56;;;3.51;39.02
25350;BME280;13302;48.796;11.978;2023-02-13T07:15:19;98863.41;;;3.56;39.06
25350;BME280;13302;48.796;11.978;2023-02-13T07:18:06;98865.66;;;3.59;39.16
25350;BME280;13302;48.796;11.978;2023-02-13T07:20:53;98865.38;;;3.61;38.91
25350;BME280;13302;48.796;11.978;2023-02-13T07:23:41;98864.31;;;3.62;38.73
25350;BME280;13302;48.796;11.978;2023-02-13T07:26:28;98871.16;;;3.64;38.88
25350;BME280;13302;48.796;11.978;2023-02-13T07:29:15;98868.44;;;3.64;38.86
25350;BME280;13302;48.796;11.978;2023-02-13T07:32:02;98868.19;;;3.66;38.76
25350;BME280;13302;48.796;11.978;2023-02-13T07:34:49;98868.19;;;3.66;38.56
25350;BME280;13302;48.796;11.978;2023-02-13T07:37:47;98870.91;;;3.66;38.55
25350;BME280;13302;48.796;11.978;2023-02-13T07:40:35;98869.84;;;3.67;38.72
25350;BME280;13302;48.796;11.978;2023-02-13T07:43:21;98865.19;;;3.67;38.55
25350;BME280;13302;48.796;11.978;2023-02-13T07:46:09;98873.97;;;3.69;38.60
25350;BME280;13302;48.796;11.978;2023-02-13T07:48:56;98871.94;;;3.60;38.67
25350;BME280;13302;48.796;11.978;2023-02-13T07:51:43;98874.72;;;3.65;38.54
25350;BME280;13302;48.796;11.978;2023-02-13T07:54:30;98875.31;;;3.67;38.69
25350;BME280;13302;48.796;11.978;2023-02-13T07:57:17;98871.50;;;3.68;38.83
25350;BME280;13302;48.796;11.978;2023-02-13T08:00:04;98869.31;;;3.70;38.68
25350;BME280;13302;48.796;11.978;2023-02-13T08:02:58;98871.53;;;3.73;38.62
25350;BME280;13302;48.796;11.978;2023-02-13T08:05:46;98867.47;;;3.76;38.68
25350;BME280;13302;48.796;11.978;2023-02-13T08:08:35;98869.94;;;3.77;38.66
25350;BME280;13302;48.796;11.978;2023-02-13T08:11:27;98870.50;;;3.79;38.59
25350;BME280;13302;48.796;11.978;2023-02-13T08:14:35;98872.72;;;3.82;38.43
25350;BME280;13302;48.796;11.978;2023-02-13T08:17:22;98864.28;;;3.84;38.56
25350;BME280;13302;48.796;11.978;2023-02-13T08:20:09;98865.66;;;3.86;38.52
25350;BME280;13302;48.796;11.978;2023-02-13T08:23:04;98866.47;;;3.87;38.48
25350;BME280;13302;48.796;11.978;2023-02-13T08:25:51;98870.34;;;3.91;38.51
25350;BME280;13302;48.796;11.978;2023-02-13T08:28:41;98875.56;;;3.92;38.67
25350;BME280;13302;48.796;11.978;2023-02-13T08:31:28;98870.41;;;3.96;38.57
25350;BME280;13302;48.796;11.978;2023-02-13T08:34:15;98876.72;;;3.96;38.60
25350;BME280;13302;48.796;11.978;2023-02-13T08:37:02;98876.44;;;3.98;38.68
25350;BME280;13302;48.796;11.978;2023-02-13T08:39:49;98867.16;;;3.99;38.68
25350;BME280;13302;48.796;11.978;2023-02-13T08:42:36;98872.91;;;4.02;38.72
25350;BME280;13302;48.796;11.978;2023-02-13T08:45:24;98876.22;;;4.04;38.76
25350;BME280;13302;48.796;11.978;2023-02-13T08:48:10;98870.25;;;4.07;38.60
25350;BME280;13302;48.796;11.978;2023-02-13T08:50:57;98870.78;;;4.09;38.85
25350;BME280;13302;48.796;11.978;2023-02-13T08:53:44;98875.19;;;4.10;38.68
25350;BME280;13302;48.796;11.978;2023-02-13T08:56:31;98881.78;;;4.14;38.79
25350;BME280;13302;48.796;11.978;2023-02-13T08:59:19;98882.09;;;4.18;38.84
25350;BME280;13302;48.796;11.978;2023-02-13T09:02:09;98882.38;;;4.22;38.79
25350;BME280;13302;48.796;11.978;2023-02-13T09:04:56;98884.88;;;4.23;38.73
25350;BME280;13302;48.796;11.978;2023-02-13T09:07:43;98892.84;;;4.25;38.83
25350;BME280;13302;48.796;11.978;2023-02-13T09:10:31;98890.94;;;4.25;38.88
25350;BME280;13302;48.796;11.978;2023-02-13T09:13:18;98899.16;;;4.25;38.65
25350;BME280;13302;48.796;11.978;2023-02-13T09:16:06;98891.44;;;4.22;38.71
25350;BME280;13302;48.796;11.978;2023-02-13T09:18:53;98899.66;;;4.22;38.67
25350;BME280;13302;48.796;11.978;2023-02-13T09:21:40;98894.44;;;4.21;39.06
25350;BME280;13302;48.796;11.978;2023-02-13T09:24:27;98900.22;;;4.24;38.87
25350;BME280;13302;48.796;11.978;2023-02-13T09:27:14;98899.16;;;4.25;39.06
25350;BME280;13302;48.796;11.978;2023-02-13T09:30:01;98890.66;;;4.27;39.00
25350;BME280;13302;48.796;11.978;2023-02-13T09:32:52;98895.59;;;4.30;39.16
25350;BME280;13302;48.796;11.978;2023-02-13T09:35:40;98899.50;;;4.34;39.17
25350;BME280;13302;48.796;11.978;2023-02-13T09:38:27;98889.66;;;4.38;39.33
25350;BME280;13302;48.796;11.978;2023-02-13T09:41:23;98897.06;;;4.42;39.19
25350;BME280;13302;48.796;11.978;2023-02-13T09:44:12;98891.41;;;4.49;39.14
25350;BME280;13302;48.796;11.978;2023-02-13T09:47:34;98890.34;;;4.55;39.29
25350;BME280;13302;48.796;11.978;2023-02-13T09:50:23;98888.72;;;4.59;39.12
25350;BME280;13302;48.796;11.978;2023-02-13T09:53:20;98879.41;;;4.60;39.29
25350;BME280;13302;48.796;11.978;2023-02-13T09:56:26;98889.84;;;4.63;39.30
25350;BME280;13302;48.796;11.978;2023-02-13T09:59:35;98894.00;;;4.66;39.25
25350;BME280;13302;48.796;11.978;2023-02-13T10:06:26;98886.31;;;4.68;39.44
25350;BME280;13302;48.796;11.978;2023-02-13T10:09:27;98885.56;;;4.72;39.53
25350;BME280;13302;48.796;11.978;2023-02-13T10:18:10;98878.78;;;4.85;39.74
25350;BME280;13302;48.796;11.978;2023-02-13T10:20:59;98874.19;;;4.90;39.68
25350;BME280;13302;48.796;11.978;2023-02-13T10:24:00;98881.63;;;4.95;39.66
25350;BME280;13302;48.796;11.978;2023-02-13T10:26:51;98880.28;;;5.02;39.46
25350;BME280;13302;48.796;11.978;2023-02-13T10:33:02;98881.69;;;5.10;39.61
25350;BME280;13302;48.796;11.978;2023-02-13T10:36:22;98873.75;;;5.14;39.53
25350;BME280;13302;48.796;11.978;2023-02-13T10:39:21;98879.25;;;5.19;39.46
25350;BME280;13302;48.796;11.978;2023-02-13T10:48:33;98871.63;;;5.31;39.33
25350;BME280;13302;48.796;11.978;2023-02-13T10:51:44;98873.28;;;5.37;39.45
25350;BME280;13302;48.796;11.978;2023-02-13T10:55:30;98871.41;;;5.42;39.42
25350;BME280;13302;48.796;11.978;2023-02-13T11:03:48;98866.78;;;5.58;39.53
25350;BME280;13302;48.796;11.978;2023-02-13T11:06:54;98864.06;;;5.63;39.32
25350;BME280;13302;48.796;11.978;2023-02-13T11:09:44;98866.84;;;5.68;39.21
25350;BME280;13302;48.796;11.978;2023-02-13T11:12:34;98866.84;;;5.73;39.14
25350;BME280;13302;48.796;11.978;2023-02-13T11:15:30;98864.91;;;5.74;39.43
25350;BME280;13302;48.796;11.978;2023-02-13T11:18:20;98865.22;;;5.77;38.99
25350;BME280;13302;48.796;11.978;2023-02-13T11:21:33;98850.66;;;5.82;39.01
25350;BME280;13302;48.796;11.978;2023-02-13T11:24:23;98857.81;;;5.88;39.21
25350;BME280;13302;48.796;11.978;2023-02-13T11:27:12;98858.09;;;5.91;39.00
25350;BME280;13302;48.796;11.978;2023-02-13T11:30:06;98864.16;;;5.93;39.02
25350;BME280;13302;48.796;11.978;2023-02-13T11:32:59;98862.78;;;5.96;39.03
25350;BME280;13302;48.796;11.978;2023-02-13T11:35:47;98858.38;;;6.00;39.13
25350;BME280;13302;48.796;11.978;2023-02-13T11:38:34;98858.94;;;6.02;39.14
25350;BME280;13302;48.796;11.978;2023-02-13T11:41:21;98853.16;;;6.04;39.03
25350;BME280;13302;48.796;11.978;2023-02-13T11:44:30;98855.34;;;6.07;39.10
25350;BME280;13302;48.796;11.978;2023-02-13T11:47:41;98852.59;;;6.07;38.98
25350;BME280;13302;48.796;11.978;2023-02-13T11:50:33;98852.94;;;6.10;39.03
25350;BME280;13302;48.796;11.978;2023-02-13T11:53:23;98846.91;;;6.13;39.25
25350;BME280;13302;48.796;11.978;2023-02-13T11:56:14;98860.63;;;6.18;39.00
25350;BME280;13302;48.796;11.978;2023-02-13T11:59:01;98865.28;;;6.23;39.17
25350;BME280;13302;48.796;11.978;2023-02-13T12:02:12;98864.19;;;6.24;39.04
25350;BME280;13302;48.796;11.978;2023-02-13T12:05:20;98860.09;;;6.26;38.74
25350;BME280;13302;48.796;11.978;2023-02-13T12:08:08;98862.03;;;6.31;39.10
25350;BME280;13302;48.796;11.978;2023-02-13T12:10:57;98854.31;;;6.33;39.19
25350;BME280;13302;48.796;11.978;2023-02-13T12:13:45;98856.81;;;6.34;39.11
25350;BME280;13302;48.796;11.978;2023-02-13T12:16:38;98857.88;;;6.33;39.26
25350;BME280;13302;48.796;11.978;2023-02-13T12:19:38;98849.91;;;6.32;39.00
25350;BME280;13302;48.796;11.978;2023-02-13T12:22:30;98857.88;;;6.33;39.10
25350;BME280;13302;48.796;11.978;2023-02-13T12:28:15;98858.19;;;6.27;39.30
25350;BME280;13302;48.796;11.978;2023-02-13T12:43:48;98839.22;;;6.25;39.63
25350;BME280;13302;48.796;11.978;2023-02-13T12:46:53;98833.47;;;6.27;39.60
25350;BME280;13302;48.796;11.978;2023-02-13T12:56:53;98819.16;;;6.35;39.53
25350;BME280;13302;48.796;11.978;2023-02-13T13:09:05;98813.66;;;6.40;39.70
25350;BME280;13302;48.796;11.978;2023-02-13T13:12:23;98814.75;;;6.44;39.52
25350;BME280;13302;48.796;11.978;2023-02-13T13:15:40;98808.97;;;6.45;39.50
25350;BME280;13302;48.796;11.978;2023-02-13T13:24:27;98799.91;;;6.55;39.47
25350;BME280;13302;48.796;11.978;2023-02-13T13:27:22;98800.16;;;6.59;39.30
25350;BME280;13302;48.796;11.978;2023-02-13T13:30:21;98798.50;;;6.63;39.31
25350;BME280;13302;48.796;11.978;2023-02-13T13:33:15;98802.63;;;6.65;39.25
25350;BME280;13302;48.796;11.978;2023-02-13T13:36:17;98799.03;;;6.70;39.19
25350;BME280;13302;48.796;11.978;2023-02-13T13:45:39;98799.56;;;6.77;39.01
25350;BME280;13302;48.796;11.978;2023-02-13T13:48:39;98800.13;;;6.79;38.96
25350;BME280;13302;48.796;11.978;2023-02-13T13:51:32;98793.53;;;6.80;39.09
25350;BME280;13302;48.796;11.978;2023-02-13T13:54:23;98798.47;;;6.83;38.97
25350;BME280;13302;48.796;11.978;2023-02-13T13:57:11;98794.63;;;6.84;39.10
25350;BME280;13302;48.796;11.978;2023-02-13T14:00:00;98789.66;;;6.86;39.15
25350;BME280;13302;48.796;11.978;2023-02-13T14:06:06;98786.06;;;6.85;39.21
25350;BME280;13302;48.796;11.978;2023-02-13T14:08:56;98788.00;;;6.85;39.29
25350;BME280;13302;48.796;11.978;2023-02-13T14:11:44;98792.66;;;6.84;39.36
25350;BME280;13302;48.796;11.978;2023-02-13T14:20:33;98787.47;;;6.78;39.56
25350;BME280;13302;48.796;11.978;2023-02-13T14:26:29;98789.69;;;6.76;39.65
25350;BME280;13302;48.796;11.978;2023-02-13T14:29:30;98794.88;;;6.77;39.48
25350;BME280;13302;48.796;11.978;2023-02-13T14:32:22;98794.06;;;6.77;39.55
25350;BME280;13302;48.796;11.978;2023-02-13T14:35:27;98791.63;;;6.75;39.54
25350;BME280;13302;48.796;11.978;2023-02-13T14:38:22;98785.28;;;6.75;39.65
25350;BME280;13302;48.796;11.978;2023-02-13T14:44:48;98788.03;;;6.70;39.68
25350;BME280;13302;48.796;11.978;2023-02-13T14:47:40;98786.69;;;6.67;39.57
25350;BME280;13302;48.796;11.978;2023-02-13T14:50:43;98786.13;;;6.65;39.76
25350;BME280;13302;48.796;11.978;2023-02-13T14:53:50;98784.47;;;6.64;39.54
25350;BME280;13302;48.796;11.978;2023-02-13T14:56:37;98782.84;;;6.63;39.76
25350;BME280;13302;48.796;11.978;2023-02-13T14:59:28;98776.28;;;6.59;39.71
25350;BME280;13302;48.796;11.978;2023-02-13T15:02:27;98785.59;;;6.58;39.80
25350;BME280;13302;48.796;11.978;2023-02-13T15:05:17;98777.94;;;6.55;39.54
25350;BME280;13302;48.796;11.978;2023-02-13T15:08:12;98783.97;;;6.52;39.76
25350;BME280;13302;48.796;11.978;2023-02-13T15:11:00;98777.09;;;6.50;39.61
25350;BME280;13302;48.796;11.978;2023-02-13T15:13:47;98779.28;;;6.48;39.85
25350;BME280;13302;48.796;11.978;2023-02-13T15:16:34;98774.09;;;6.46;39.63
25350;BME280;13302;48.796;11.978;2023-02-13T15:19:22;98772.44;;;6.45;39.67
25350;BME280;13302;48.796;11.978;2023-02-13T15:22:20;98772.16;;;6.47;39.63
25350;BME280;13302;48.796;11.978;2023-02-13T15:28:20;98773.53;;;6.44;39.78
25350;BME280;13302;48.796;11.978;2023-02-13T15:31:32;98771.63;;;6.44;39.59
25350;BME280;13302;48.796;11.978;2023-02-13T15:34:24;98770.78;;;6.44;39.62
25350;BME280;13302;48.796;11.978;2023-02-13T15:37:22;98773.81;;;6.42;39.70
25350;BME280;13302;48.796;11.978;2023-02-13T15:40:15;98776.00;;;6.40;39.48
25350;BME280;13302;48.796;11.978;2023-02-13T15:43:02;98770.81;;;6.39;39.57
25350;BME280;13302;48.796;11.978;2023-02-13T15:45:49;98774.91;;;6.36;39.66
25350;BME280;13302;48.796;11.978;2023-02-13T15:48:36;98767.78;;;6.35;39.55
25350;BME280;13302;48.796;11.978;2023-02-13T15:51:25;98774.91;;;6.36;39.45
25350;BME280;13302;48.796;11.978;2023-02-13T15:54:30;98772.19;;;6.36;39.30
25350;BME280;13302;48.796;11.978;2023-02-13T15:57:19;98776.56;;;6.37;39.41
25350;BME280;13302;48.796;11.978;2023-02-13T16:00:13;98782.91;;;6.38;39.28
25350;BME280;13302;48.796;11.978;2023-02-13T16:03:11;98781.81;;;6.39;39.29
25350;BME280;13302;48.796;11.978;2023-02-13T16:05:59;98781.81;;;6.39;39.15
25350;BME280;13302;48.796;11.978;2023-02-13T16:08:52;98778.50;;;6.37;38.99
25350;BME280;13302;48.796;11.978;2023-02-13T16:11:43;98773.28;;;6.35;38.84
25350;BME280;13302;48.796;11.978;2023-02-13T16:14:33;98776.31;;;6.34;38.85
25350;BME280;13302;48.796;11.978;2023-02-13T16:17:41;98779.88;;;6.29;38.70
25350;BME280;13302;48.796;11.978;2023-02-13T16:20:30;98764.78;;;6.27;38.92
25350;BME280;13302;48.796;11.978;2023-02-13T16:23:20;98774.66;;;6.23;38.60
25350;BME280;13302;48.796;11.978;2023-02-13T16:26:11;98771.13;;;6.17;38.30
25350;BME280;13302;48.796;11.978;2023-02-13T16:29:00;98770.84;;;6.14;38.37
25350;BME280;13302;48.796;11.978;2023-02-13T16:31:49;98776.84;;;6.06;38.14
25350;BME280;13302;48.796;11.978;2023-02-13T16:34:36;98772.75;;;5.98;38.34
25350;BME280;13302;48.796;11.978;2023-02-13T16:37:32;98779.03;;;5.88;38.35
25350;BME280;13302;48.796;11.978;2023-02-13T16:40:40;98776.28;;;5.78;38.53
25350;BME280;13302;48.796;11.978;2023-02-13T16:46:28;98779.03;;;5.68;38.48
25350;BME280;13302;48.796;11.978;2023-02-13T16:49:27;98779.00;;;5.63;38.36
25350;BME280;13302;48.796;11.978;2023-02-13T16:52:21;98790.25;;;5.62;38.23
25350;BME280;13302;48.796;11.978;2023-02-13T16:55:14;98788.88;;;5.59;38.25
25350;BME280;13302;48.796;11.978;2023-02-13T16:58:05;98794.63;;;5.58;38.17
25350;BME280;13302;48.796;11.978;2023-02-13T17:00:53;98793.81;;;5.57;38.06
25350;BME280;13302;48.796;11.978;2023-02-13T17:03:40;98805.91;;;5.56;38.33
25350;BME280;13302;48.796;11.978;2023-02-13T17:06:27;98804.25;;;5.55;38.14
25350;BME280;13302;48.796;11.978;2023-02-13T17:09:14;98810.00;;;5.53;38.01
25350;BME280;13302;48.796;11.978;2023-02-13T17:12:01;98803.69;;;5.53;38.34
25350;BME280;13302;48.796;11.978;2023-02-13T17:14:48;98808.38;;;5.52;38.23